createdAt,value
2023-03-06T00:00:06.945Z,4.3
2023-03-06T00:01:21.362Z,4.3
2023-03-06T00:02:35.677Z,4.2
2023-03-06T00:03:49.949Z,4.2
2023-03-06T00:05:04.230Z,4.2
2023-03-06T00:06:18.646Z,4.3
2023-03-06T00:07:32.962Z,4.2
2023-03-06T00:08:47.246Z,4.2
2023-03-06T00:10:01.537Z,4.2
2023-03-06T00:11:15.948Z,4.3
2023-03-06T00:12:30.258Z,4.3
2023-03-06T00:13:44.533Z,4.2
2023-03-06T00:16:13.225Z,4.2
2023-03-06T00:17:27.551Z,4.1
2023-03-06T00:18:41.835Z,4.2
2023-03-06T00:19:56.120Z,4.2
2023-03-06T00:21:10.529Z,4.2
2023-03-06T00:22:24.852Z,4.2
2023-03-06T00:23:39.128Z,4.2
2023-03-06T00:24:53.399Z,4.1
2023-03-06T00:26:07.817Z,4.1
2023-03-06T00:27:22.144Z,4.2
2023-03-06T00:28:36.423Z,4.2
2023-03-06T00:29:50.760Z,4.2
2023-03-06T00:31:05.166Z,4.2
2023-03-06T00:32:19.500Z,4.2
2023-03-06T00:33:32.844Z,4.2
2023-03-06T00:34:47.124Z,4.2
2023-03-06T00:36:01.536Z,4.2
2023-03-06T00:37:15.869Z,4.1
2023-03-06T00:38:30.135Z,4.2
2023-03-06T00:39:44.429Z,4.1
2023-03-06T00:40:58.838Z,4.1
2023-03-06T00:42:13.150Z,4.1
2023-03-06T00:43:27.441Z,4.1
2023-03-06T00:44:41.706Z,4.1
2023-03-06T00:45:56.128Z,4
2023-03-06T00:47:10.446Z,4
2023-03-06T00:49:39.167Z,4.1
2023-03-06T00:50:53.457Z,4.1
2023-03-06T00:52:07.861Z,4.1
2023-03-06T00:53:22.183Z,4.1
2023-03-06T00:54:36.476Z,4.1
2023-03-06T00:55:50.740Z,4.1
2023-03-06T00:57:05.158Z,4.1
2023-03-06T00:58:19.479Z,4.1
2023-03-06T00:59:33.759Z,4.1
2023-03-06T01:00:48.046Z,4.1
2023-03-06T01:02:02.453Z,4.1
2023-03-06T01:03:16.779Z,4.1
2023-03-06T01:04:31.058Z,4.1
2023-03-06T01:05:45.326Z,4.1
2023-03-06T01:06:59.734Z,4.1
2023-03-06T01:08:14.059Z,4.1
2023-03-06T01:09:28.342Z,4.1
2023-03-06T01:10:42.618Z,4.1
2023-03-06T01:11:57.038Z,4.1
2023-03-06T01:13:11.362Z,4.1
2023-03-06T01:14:25.639Z,4.1
2023-03-06T01:16:54.317Z,4.1
2023-03-06T01:18:08.655Z,4.1
2023-03-06T01:19:22.936Z,4
2023-03-06T01:20:37.209Z,4
2023-03-06T01:21:51.617Z,4
2023-03-06T01:23:05.933Z,4
2023-03-06T01:24:20.211Z,4
2023-03-06T01:25:34.508Z,4.1
2023-03-06T01:26:48.905Z,4
2023-03-06T01:28:03.224Z,4.1
2023-03-06T01:29:17.513Z,4.1
2023-03-06T01:30:31.784Z,4.1
2023-03-06T01:31:46.199Z,4.1
2023-03-06T01:33:00.527Z,4.1
2023-03-06T01:34:14.862Z,4.1
2023-03-06T01:35:29.202Z,4.1
2023-03-06T01:36:43.616Z,4.1
2023-03-06T01:37:57.951Z,4
2023-03-06T01:39:11.300Z,4.1
2023-03-06T01:41:40.108Z,4.1
2023-03-06T01:42:54.420Z,4.1
2023-03-06T01:44:08.713Z,4.1
2023-03-06T01:45:22.993Z,4.1
2023-03-06T01:46:37.395Z,4.1
2023-03-06T01:47:51.713Z,4.1
2023-03-06T01:49:06.010Z,4.1
2023-03-06T01:50:20.291Z,4.1
2023-03-06T01:51:34.693Z,4.1
2023-03-06T01:52:48.963Z,4.1
2023-03-06T01:54:03.243Z,4.1
2023-03-06T01:55:17.582Z,4.1
2023-03-06T01:56:31.854Z,4.1
2023-03-06T01:57:46.261Z,4.1
2023-03-06T01:59:00.582Z,4.1
2023-03-06T02:00:14.859Z,4.1
2023-03-06T02:01:29.140Z,4.1
2023-03-06T02:02:43.553Z,4.1
2023-03-06T02:03:57.883Z,4.1
2023-03-06T02:05:12.156Z,4.1
2023-03-06T02:06:26.432Z,4.1
2023-03-06T02:07:40.856Z,4.1
2023-03-06T02:08:55.175Z,4
2023-03-06T02:10:09.598Z,4
2023-03-06T02:11:23.923Z,4
2023-03-06T02:12:38.202Z,4
2023-03-06T02:13:52.609Z,3.9
2023-03-06T02:15:06.929Z,4
2023-03-06T02:16:21.221Z,3.9
2023-03-06T02:17:35.493Z,4
2023-03-06T02:18:49.899Z,4
2023-03-06T02:20:04.218Z,4
2023-03-06T02:21:18.513Z,4
2023-03-06T02:22:32.775Z,4
2023-03-06T02:23:47.192Z,4
2023-03-06T02:25:01.517Z,4
2023-03-06T02:27:30.074Z,4
2023-03-06T02:28:44.491Z,4
2023-03-06T02:29:58.805Z,3.9
2023-03-06T02:31:13.000Z,3.9
2023-03-06T02:32:27.364Z,3.9
2023-03-06T02:33:41.783Z,3.8
2023-03-06T02:34:56.103Z,3.8
2023-03-06T02:36:10.380Z,3.8
2023-03-06T02:37:24.655Z,3.8
2023-03-06T02:38:39.068Z,3.8
2023-03-06T02:39:53.395Z,3.8
2023-03-06T02:41:07.754Z,3.8
2023-03-06T02:42:21.096Z,3.8
2023-03-06T02:43:35.415Z,3.8
2023-03-06T02:44:49.695Z,3.8
2023-03-06T02:46:03.971Z,3.8
2023-03-06T02:47:18.380Z,3.8
2023-03-06T02:48:32.708Z,3.8
2023-03-06T02:49:46.987Z,3.8
2023-03-06T02:51:01.263Z,3.8
2023-03-06T02:52:15.671Z,3.8
2023-03-06T02:53:30.003Z,3.8
2023-03-06T02:54:44.284Z,3.8
2023-03-06T02:55:58.553Z,3.8
2023-03-06T02:57:12.965Z,3.8
2023-03-06T02:58:27.276Z,3.8
2023-03-06T02:59:41.563Z,3.8
2023-03-06T03:00:55.848Z,3.8
2023-03-06T03:02:10.258Z,3.8
2023-03-06T03:04:38.857Z,3.8
2023-03-06T03:05:53.133Z,3.8
2023-03-06T03:07:07.554Z,3.7
2023-03-06T03:08:21.874Z,3.6
2023-03-06T03:09:36.147Z,3.6
2023-03-06T03:10:50.578Z,3.5
2023-03-06T03:12:04.987Z,3.5
2023-03-06T03:13:19.315Z,3.5
2023-03-06T03:14:33.588Z,3.4
2023-03-06T03:15:47.866Z,3.4
2023-03-06T03:17:02.264Z,3.4
2023-03-06T03:18:16.604Z,3.4
2023-03-06T03:19:30.883Z,3.4
2023-03-06T03:20:45.151Z,3.4
2023-03-06T03:21:59.561Z,3.4
2023-03-06T03:23:13.881Z,3.4
2023-03-06T03:24:28.174Z,3.4
2023-03-06T03:25:42.448Z,3.4
2023-03-06T03:26:56.869Z,3.3
2023-03-06T03:28:11.174Z,3.3
2023-03-06T03:29:25.461Z,3.2
2023-03-06T03:30:39.872Z,3.3
2023-03-06T03:31:54.266Z,3.3
2023-03-06T03:33:08.600Z,3.3
2023-03-06T03:34:22.888Z,3.3
2023-03-06T03:35:37.164Z,3.3
2023-03-06T03:38:05.893Z,3.2
2023-03-06T03:39:20.166Z,3.2
2023-03-06T03:40:34.456Z,3.2
2023-03-06T03:41:48.860Z,3.2
2023-03-06T03:43:03.181Z,3.2
2023-03-06T03:44:17.473Z,3.2
2023-03-06T03:45:31.754Z,3.2
2023-03-06T03:46:46.152Z,3.1
2023-03-06T03:48:00.481Z,3.1
2023-03-06T03:49:14.752Z,3.1
2023-03-06T03:50:29.038Z,3
2023-03-06T03:51:43.435Z,3
2023-03-06T03:52:57.776Z,2.9
2023-03-06T03:54:12.040Z,2.9
2023-03-06T03:55:26.331Z,2.9
2023-03-06T03:56:40.747Z,2.9
2023-03-06T03:57:55.052Z,2.9
2023-03-06T03:59:09.491Z,2.9
2023-03-06T04:00:23.804Z,3
2023-03-06T04:01:38.100Z,3
2023-03-06T04:02:52.502Z,3
2023-03-06T04:04:06.817Z,2.9
2023-03-06T04:05:21.101Z,3
2023-03-06T04:06:35.376Z,2.9
2023-03-06T04:07:49.785Z,2.9
2023-03-06T04:09:04.124Z,2.9
2023-03-06T04:10:18.518Z,3
2023-03-06T04:11:32.841Z,3
2023-03-06T04:14:01.539Z,3.1
2023-03-06T04:15:15.856Z,3.1
2023-03-06T04:16:30.134Z,3.1
2023-03-06T04:17:44.409Z,3.1
2023-03-06T04:18:58.830Z,3.2
2023-03-06T04:20:13.137Z,3.2
2023-03-06T04:21:27.426Z,3.2
2023-03-06T04:22:41.704Z,3.2
2023-03-06T04:23:56.106Z,3.2
2023-03-06T04:25:10.435Z,3.2
2023-03-06T04:26:24.728Z,3.3
2023-03-06T04:27:38.991Z,3.3
2023-03-06T04:28:53.404Z,3.3
2023-03-06T04:30:07.737Z,3.3
2023-03-06T04:31:22.017Z,3.3
2023-03-06T04:32:36.291Z,3.3
2023-03-06T04:33:50.696Z,3.4
2023-03-06T04:35:05.033Z,3.4
2023-03-06T04:36:19.313Z,3.4
2023-03-06T04:37:33.579Z,3.4
2023-03-06T04:38:48.002Z,3.4
2023-03-06T04:40:02.313Z,3.4
2023-03-06T04:41:16.599Z,3.4
2023-03-06T04:42:30.885Z,3.4
2023-03-06T04:43:45.275Z,3.4
2023-03-06T04:44:59.606Z,3.4
2023-03-06T04:46:13.879Z,3.4
2023-03-06T04:47:28.166Z,3.4
2023-03-06T04:48:42.582Z,3.4
2023-03-06T04:49:56.901Z,3.4
2023-03-06T04:51:11.179Z,3.3
2023-03-06T04:52:25.454Z,3.3
2023-03-06T04:53:39.879Z,3.3
2023-03-06T04:54:54.199Z,3.3
2023-03-06T04:56:08.528Z,3.3
2023-03-06T04:57:22.878Z,3.2
2023-03-06T04:58:37.273Z,3.2
2023-03-06T04:59:51.611Z,3.2
2023-03-06T05:01:04.956Z,3.2
2023-03-06T05:02:19.253Z,3.2
2023-03-06T05:03:33.647Z,3.2
2023-03-06T05:04:47.981Z,3.2
2023-03-06T05:06:02.251Z,3.1
2023-03-06T05:07:16.545Z,3.1
2023-03-06T05:08:30.950Z,3.1
2023-03-06T05:09:45.261Z,3.1
2023-03-06T05:10:59.544Z,3.1
2023-03-06T05:12:13.823Z,3.1
2023-03-06T05:13:28.248Z,3.1
2023-03-06T05:14:42.565Z,3.1
2023-03-06T05:15:56.850Z,3.1
2023-03-06T05:17:11.120Z,3.1
2023-03-06T05:18:25.524Z,3.1
2023-03-06T05:19:39.856Z,3.1
2023-03-06T05:20:54.140Z,3.1
2023-03-06T05:22:08.412Z,3.1
2023-03-06T05:23:22.831Z,3.1
2023-03-06T05:24:37.071Z,3.1
2023-03-06T05:25:51.285Z,3.1
2023-03-06T05:27:05.516Z,3.1
2023-03-06T05:28:19.742Z,3.1
2023-03-06T05:29:34.039Z,3.1
2023-03-06T05:30:48.291Z,3.1
2023-03-06T05:32:02.639Z,3.1
2023-03-06T05:33:16.969Z,3.1
2023-03-06T05:34:31.340Z,3.1
2023-03-06T05:35:45.612Z,3.1
2023-03-06T05:36:58.908Z,3
2023-03-06T05:38:13.146Z,3
2023-03-06T05:39:27.434Z,3
2023-03-06T05:40:41.683Z,3
2023-03-06T05:41:55.915Z,3
2023-03-06T05:43:10.139Z,3
2023-03-06T05:44:24.367Z,2.9
2023-03-06T05:45:38.662Z,2.9
2023-03-06T05:46:52.894Z,2.9
2023-03-06T05:48:07.128Z,2.9
2023-03-06T05:50:35.578Z,2.9
2023-03-06T05:51:49.883Z,2.9
2023-03-06T05:53:04.121Z,2.9
2023-03-06T05:54:18.359Z,2.9
2023-03-06T05:55:32.575Z,2.9
2023-03-06T05:56:46.806Z,2.9
2023-03-06T05:58:01.105Z,2.9
2023-03-06T05:59:15.340Z,2.9
2023-03-06T06:00:29.581Z,2.8
2023-03-06T06:01:43.794Z,2.8
2023-03-06T06:02:58.016Z,2.8
2023-03-06T06:04:12.327Z,2.8
2023-03-06T06:05:26.563Z,2.8
2023-03-06T06:07:55.080Z,2.9
2023-03-06T06:09:08.384Z,2.9
2023-03-06T06:10:22.606Z,2.9
2023-03-06T06:11:36.853Z,2.9
2023-03-06T06:12:51.077Z,2.9
2023-03-06T06:14:05.295Z,2.9
2023-03-06T06:15:19.596Z,2.9
2023-03-06T06:16:33.844Z,2.9
2023-03-06T06:17:48.065Z,2.9
2023-03-06T06:19:02.285Z,3
2023-03-06T06:20:16.517Z,3
2023-03-06T06:21:30.824Z,3
2023-03-06T06:22:45.054Z,3
2023-03-06T06:23:59.291Z,3
2023-03-06T06:25:13.514Z,3
2023-03-06T06:26:27.749Z,3
2023-03-06T06:27:42.040Z,3
2023-03-06T06:30:10.516Z,3
2023-03-06T06:31:24.739Z,3.1
2023-03-06T06:32:38.958Z,3.1
2023-03-06T06:33:53.253Z,3.1
2023-03-06T06:35:07.504Z,3.1
2023-03-06T06:36:21.739Z,3.1
2023-03-06T06:37:35.956Z,3.2
2023-03-06T06:38:50.177Z,3.2
2023-03-06T06:41:18.825Z,3.2
2023-03-06T06:42:32.153Z,3.3
2023-03-06T06:43:45.446Z,3.3
2023-03-06T06:44:59.691Z,3.2
2023-03-06T06:46:13.922Z,3.3
2023-03-06T06:47:28.149Z,3.3
2023-03-06T06:48:42.381Z,3.3
2023-03-06T06:49:56.682Z,3.3
2023-03-06T06:51:10.911Z,3.3
2023-03-06T06:52:25.150Z,3.3
2023-03-06T06:53:39.375Z,3.4
2023-03-06T06:54:53.609Z,3.4
2023-03-06T06:56:07.893Z,3.4
2023-03-06T06:57:22.132Z,3.4
2023-03-06T06:58:36.377Z,3.4
2023-03-06T06:59:50.598Z,3.4
2023-03-06T07:01:04.815Z,3.4
2023-03-06T07:02:19.121Z,3.4
2023-03-06T07:03:33.353Z,3.4
2023-03-06T07:04:47.590Z,3.5
2023-03-06T07:06:01.826Z,3.5
2023-03-06T07:07:16.037Z,3.5
2023-03-06T07:08:30.341Z,3.5
2023-03-06T07:09:44.595Z,3.5
2023-03-06T07:12:13.046Z,3.5
2023-03-06T07:13:27.263Z,3.5
2023-03-06T07:14:41.629Z,3.5
2023-03-06T07:15:55.903Z,3.5
2023-03-06T07:17:09.246Z,3.5
2023-03-06T07:18:23.544Z,3.5
2023-03-06T07:20:52.124Z,3.5
2023-03-06T07:22:06.482Z,3.5
2023-03-06T07:23:20.720Z,3.5
2023-03-06T07:24:34.939Z,3.5
2023-03-06T07:25:49.233Z,3.5
2023-03-06T07:27:03.473Z,3.5
2023-03-06T07:28:17.713Z,3.5
2023-03-06T07:29:31.928Z,3.5
2023-03-06T07:30:46.159Z,3.5
2023-03-06T07:32:00.463Z,3.5
2023-03-06T07:33:14.708Z,3.5
2023-03-06T07:35:43.159Z,3.5
2023-03-06T07:36:57.389Z,3.5
2023-03-06T07:38:11.685Z,3.4
2023-03-06T07:39:25.933Z,3.4
2023-03-06T07:40:40.149Z,3.4
2023-03-06T07:41:54.384Z,3.5
2023-03-06T07:43:08.613Z,3.4
2023-03-06T07:44:22.900Z,3.4
2023-03-06T07:45:37.146Z,3.5
2023-03-06T07:46:51.376Z,3.5
2023-03-06T07:48:05.600Z,3.5
2023-03-06T07:50:34.134Z,3.5
2023-03-06T07:51:48.379Z,3.5
2023-03-06T07:53:02.655Z,3.5
2023-03-06T07:54:15.943Z,3.5
2023-03-06T07:55:30.254Z,3.5
2023-03-06T07:56:44.495Z,3.4
2023-03-06T07:57:58.722Z,3.3
2023-03-06T07:59:12.945Z,3.2
2023-03-06T08:00:27.180Z,3.2
2023-03-06T08:01:41.466Z,3.1
2023-03-06T08:02:55.706Z,3.2
2023-03-06T08:04:09.934Z,3.2
2023-03-06T08:05:24.168Z,3.1
2023-03-06T08:06:38.395Z,3.1
2023-03-06T08:07:52.687Z,3.1
2023-03-06T08:09:06.943Z,3.1
2023-03-06T08:10:21.162Z,3.1
2023-03-06T08:11:35.392Z,3.2
2023-03-06T08:12:49.614Z,3.2
2023-03-06T08:14:03.914Z,3.2
2023-03-06T08:15:18.161Z,3.2
2023-03-06T08:16:32.395Z,3.2
2023-03-06T08:17:46.611Z,3.3
2023-03-06T08:19:00.841Z,3.3
2023-03-06T08:20:15.139Z,3.3
2023-03-06T08:21:29.383Z,3.3
2023-03-06T08:22:43.615Z,3.3
2023-03-06T08:25:12.131Z,3.3
2023-03-06T08:26:26.429Z,3.3
2023-03-06T08:27:40.704Z,3.3
2023-03-06T08:28:54.000Z,3.4
2023-03-06T08:30:08.224Z,3.5
2023-03-06T08:31:22.530Z,3.5
2023-03-06T08:33:50.993Z,3.4
2023-03-06T08:35:05.217Z,3.4
2023-03-06T08:36:19.460Z,3.4
2023-03-06T08:37:33.755Z,3.5
2023-03-06T08:38:47.992Z,3.5
2023-03-06T08:40:02.222Z,3.6
2023-03-06T08:41:16.441Z,3.6
2023-03-06T08:42:30.670Z,3.7
2023-03-06T08:43:44.961Z,3.7
2023-03-06T08:44:59.202Z,3.7
2023-03-06T08:46:13.437Z,3.6
2023-03-06T08:47:27.672Z,3.6
2023-03-06T08:48:41.891Z,3.6
2023-03-06T08:49:56.188Z,3.5
2023-03-06T08:51:10.431Z,3.5
2023-03-06T08:52:24.652Z,3.5
2023-03-06T08:53:38.883Z,3.6
2023-03-06T08:54:53.111Z,3.6
2023-03-06T08:56:07.416Z,3.7
2023-03-06T08:57:21.657Z,3.7
2023-03-06T08:59:50.252Z,3.6
2023-03-06T09:01:04.483Z,3.7
2023-03-06T09:02:18.785Z,3.7
2023-03-06T09:03:33.024Z,3.7
2023-03-06T09:04:47.240Z,3.7
2023-03-06T09:06:01.474Z,3.8
2023-03-06T09:07:15.698Z,3.7
2023-03-06T09:08:29.992Z,3.7
2023-03-06T09:09:44.235Z,3.7
2023-03-06T09:10:58.605Z,3.7
2023-03-06T09:12:12.842Z,3.7
2023-03-06T09:13:27.056Z,3.7
2023-03-06T09:14:41.363Z,3.8
2023-03-06T09:15:55.609Z,3.8
2023-03-06T09:17:09.826Z,3.9
2023-03-06T09:18:24.056Z,3.8
2023-03-06T09:19:38.281Z,3.8
2023-03-06T09:20:52.592Z,3.9
2023-03-06T09:22:06.831Z,4
2023-03-06T09:23:21.047Z,4
2023-03-06T09:24:35.286Z,4
2023-03-06T09:25:49.504Z,3.9
2023-03-06T09:27:03.800Z,3.8
2023-03-06T09:28:18.050Z,3.7
2023-03-06T09:29:32.275Z,3.7
2023-03-06T09:30:46.501Z,3.7
2023-03-06T09:32:00.729Z,3.8
2023-03-06T09:33:15.028Z,3.8
2023-03-06T09:34:29.271Z,4
2023-03-06T09:35:43.498Z,4
2023-03-06T09:36:57.728Z,4.1
2023-03-06T09:38:11.955Z,4.2
2023-03-06T09:39:26.255Z,4.2
2023-03-06T09:40:40.488Z,4.4
2023-03-06T09:41:54.871Z,4.6
2023-03-06T09:43:09.096Z,4.8
2023-03-06T09:44:23.323Z,4.9
2023-03-06T09:45:37.617Z,5
2023-03-06T09:46:51.859Z,5.1
2023-03-06T09:48:06.078Z,5.2
2023-03-06T09:49:20.315Z,5.3
2023-03-06T09:50:34.544Z,5.5
2023-03-06T09:51:48.847Z,5.5
2023-03-06T09:53:03.086Z,5.3
2023-03-06T09:54:17.308Z,5.3
2023-03-06T09:55:31.526Z,5.3
2023-03-06T09:56:45.757Z,5.3
2023-03-06T09:58:00.061Z,5.1
2023-03-06T09:59:14.297Z,5.1
2023-03-06T10:00:28.522Z,5.2
2023-03-06T10:02:56.980Z,5.3
2023-03-06T10:04:11.282Z,5.3
2023-03-06T10:05:25.516Z,5.1
2023-03-06T10:06:39.740Z,5
2023-03-06T10:07:53.973Z,5
2023-03-06T10:09:08.202Z,5
2023-03-06T10:10:22.508Z,4.8
2023-03-06T10:11:36.740Z,4.7
2023-03-06T10:12:51.000Z,4.7
2023-03-06T10:14:04.367Z,4.7
2023-03-06T10:15:18.665Z,4.6
2023-03-06T10:16:32.938Z,4.6
2023-03-06T10:17:46.248Z,4.6
2023-03-06T10:19:00.459Z,4.5
2023-03-06T10:20:14.775Z,4.6
2023-03-06T10:21:29.008Z,4.5
2023-03-06T10:22:43.235Z,4.5
2023-03-06T10:23:57.468Z,4.4
2023-03-06T10:25:11.689Z,4.4
2023-03-06T10:26:25.982Z,4.4
2023-03-06T10:27:40.222Z,4.5
2023-03-06T10:28:54.454Z,4.5
2023-03-06T10:30:08.673Z,4.5
2023-03-06T10:31:23.025Z,4.5
2023-03-06T10:32:37.333Z,4.5
2023-03-06T10:33:51.573Z,4.6
2023-03-06T10:35:05.801Z,4.9
2023-03-06T10:36:20.029Z,5.1
2023-03-06T10:37:34.260Z,5.3
2023-03-06T10:38:48.561Z,5.6
2023-03-06T10:40:02.793Z,5.9
2023-03-06T10:41:17.012Z,5.8
2023-03-06T10:42:31.255Z,5.8
2023-03-06T10:43:45.477Z,5.9
2023-03-06T10:44:59.772Z,5.9
2023-03-06T10:46:14.005Z,5.6
2023-03-06T10:47:28.241Z,5.5
2023-03-06T10:48:42.460Z,5.5
2023-03-06T10:51:10.996Z,5.5
2023-03-06T10:52:25.227Z,5.5
2023-03-06T10:53:39.463Z,5.6
2023-03-06T10:54:53.682Z,5.8
2023-03-06T10:56:07.918Z,5.7
2023-03-06T10:57:22.223Z,5.6
2023-03-06T10:58:36.463Z,5.5
2023-03-06T11:01:04.915Z,5.2
2023-03-06T11:02:19.131Z,5.2
2023-03-06T11:03:33.427Z,5.3
2023-03-06T11:04:47.674Z,5.4
2023-03-06T11:06:01.904Z,5.4
2023-03-06T11:07:16.127Z,5.5
2023-03-06T11:08:30.366Z,5.5
2023-03-06T11:09:44.656Z,5.6
2023-03-06T11:10:58.900Z,5.8
2023-03-06T11:12:13.117Z,5.8
2023-03-06T11:13:27.349Z,5.8
2023-03-06T11:14:41.577Z,5.7
2023-03-06T11:15:55.887Z,5.8
2023-03-06T11:17:10.170Z,5.8
2023-03-06T11:18:23.529Z,6
2023-03-06T11:20:51.152Z,6.5
2023-03-06T11:22:05.424Z,6.5
2023-03-06T11:23:18.719Z,6.6
2023-03-06T11:24:33.024Z,6.7
2023-03-06T11:25:47.260Z,6.9
2023-03-06T11:27:01.483Z,7.1
2023-03-06T11:28:15.712Z,7.4
2023-03-06T11:29:29.943Z,7.6
2023-03-06T11:30:44.252Z,7.4
2023-03-06T11:31:58.478Z,7.4
2023-03-06T11:33:12.708Z,7.7
2023-03-06T11:34:26.942Z,8.2
2023-03-06T11:35:41.163Z,8.5
2023-03-06T11:36:55.462Z,8.5
2023-03-06T11:38:09.700Z,8.6
2023-03-06T11:39:23.932Z,8.7
2023-03-06T11:40:38.164Z,8.4
2023-03-06T11:41:52.389Z,9.1
2023-03-06T11:43:06.693Z,8.9
2023-03-06T11:44:20.925Z,8.9
2023-03-06T11:45:35.164Z,8.9
2023-03-06T11:46:49.385Z,9
2023-03-06T11:48:03.610Z,9.5
2023-03-06T11:49:17.897Z,9.3
2023-03-06T11:50:32.153Z,9
2023-03-06T11:51:46.373Z,9.1
2023-03-06T11:53:00.595Z,9.8
2023-03-06T11:54:14.890Z,9.9
2023-03-06T11:55:29.183Z,9.4
2023-03-06T11:56:43.474Z,9.2
2023-03-06T11:57:56.804Z,9.2
2023-03-06T11:59:11.084Z,9
2023-03-06T12:00:25.398Z,8.3
2023-03-06T12:01:39.680Z,7.9
2023-03-06T12:02:52.971Z,7.7
2023-03-06T12:04:07.197Z,7.5
2023-03-06T12:05:21.500Z,7.3
2023-03-06T12:06:35.732Z,7.1
2023-03-06T12:07:49.955Z,7
2023-03-06T12:09:04.195Z,6.8
2023-03-06T12:10:18.417Z,6.6
2023-03-06T12:11:32.718Z,6.4
2023-03-06T12:12:46.962Z,6.3
2023-03-06T12:14:01.186Z,6.2
2023-03-06T12:15:15.412Z,6.2
2023-03-06T12:16:29.632Z,6.1
2023-03-06T12:17:43.940Z,6
2023-03-06T12:18:58.172Z,5.8
2023-03-06T12:20:12.407Z,5.6
2023-03-06T12:21:26.748Z,5.7
2023-03-06T12:22:40.990Z,5.7
2023-03-06T12:23:55.283Z,5.7
2023-03-06T12:25:09.512Z,5.8
2023-03-06T12:26:23.737Z,5.7
2023-03-06T12:27:37.969Z,5.6
2023-03-06T12:28:52.195Z,5.6
2023-03-06T12:30:06.504Z,5.6
2023-03-06T12:31:20.750Z,5.7
2023-03-06T12:32:34.966Z,5.8
2023-03-06T12:33:49.201Z,5.9
2023-03-06T12:35:03.422Z,6.1
2023-03-06T12:36:17.724Z,6.3
2023-03-06T12:38:46.694Z,6.7
2023-03-06T12:40:00.916Z,7.2
2023-03-06T12:41:15.143Z,7.1
2023-03-06T12:42:29.439Z,7.1
2023-03-06T12:43:43.676Z,7
2023-03-06T12:44:57.897Z,6.9
2023-03-06T12:46:12.130Z,6.8
2023-03-06T12:47:26.359Z,6.8
2023-03-06T12:49:54.901Z,6.7
2023-03-06T12:51:09.122Z,6.8
2023-03-06T12:52:23.361Z,6.8
2023-03-06T12:53:37.570Z,6.7
2023-03-06T12:54:51.878Z,6.6
2023-03-06T12:56:06.110Z,6.6
2023-03-06T12:57:20.345Z,6.6
2023-03-06T12:58:34.566Z,6.6
2023-03-06T12:59:48.799Z,6.7
2023-03-06T13:01:03.099Z,6.7
2023-03-06T13:02:17.334Z,6.6
2023-03-06T13:03:31.563Z,6.6
2023-03-06T13:04:45.786Z,6.6
2023-03-06T13:06:00.012Z,6.5
2023-03-06T13:07:14.000Z,6.3
2023-03-06T13:08:28.652Z,6.2
2023-03-06T13:09:41.947Z,6.3
2023-03-06T13:10:56.174Z,6.3
2023-03-06T13:12:10.482Z,6.3
2023-03-06T13:13:24.729Z,6.3
2023-03-06T13:14:38.941Z,6.3
2023-03-06T13:15:53.174Z,6.4
2023-03-06T13:17:07.403Z,6.3
2023-03-06T13:18:21.706Z,6.3
2023-03-06T13:19:35.945Z,6.3
2023-03-06T13:22:04.522Z,6.5
2023-03-06T13:23:18.737Z,6.5
2023-03-06T13:24:33.037Z,6.5
2023-03-06T13:25:47.289Z,6.5
2023-03-06T13:27:01.507Z,6.6
2023-03-06T13:28:15.745Z,6.8
2023-03-06T13:29:29.972Z,6.9
2023-03-06T13:30:44.256Z,7
2023-03-06T13:31:58.512Z,6.9
2023-03-06T13:33:12.741Z,6.9
2023-03-06T13:34:26.962Z,6.9
2023-03-06T13:35:41.192Z,6.8
2023-03-06T13:36:55.487Z,6.8
2023-03-06T13:38:09.730Z,6.9
2023-03-06T13:39:23.944Z,7
2023-03-06T13:40:38.178Z,7.2
2023-03-06T13:41:52.405Z,7.3
2023-03-06T13:43:06.709Z,7.5
2023-03-06T13:44:20.940Z,7.4
2023-03-06T13:45:35.171Z,7.3
2023-03-06T13:46:49.405Z,7.4
2023-03-06T13:48:03.626Z,7.4
2023-03-06T13:49:17.931Z,7.4
2023-03-06T13:50:32.163Z,7.3
2023-03-06T13:51:46.405Z,7.2
2023-03-06T13:53:00.614Z,7.2
2023-03-06T13:54:14.843Z,7.1
2023-03-06T13:55:29.146Z,7.1
2023-03-06T13:56:43.387Z,7.1
2023-03-06T13:57:57.620Z,7
2023-03-06T13:59:11.844Z,6.9
2023-03-06T14:00:26.066Z,7
2023-03-06T14:01:40.367Z,7.1
2023-03-06T14:02:54.611Z,7.1
2023-03-06T14:04:08.835Z,7.2
2023-03-06T14:05:23.064Z,7.2
2023-03-06T14:06:37.344Z,7.3
2023-03-06T14:07:51.655Z,7.4
2023-03-06T14:09:05.935Z,7.5
2023-03-06T14:10:19.225Z,7.5
2023-03-06T14:11:33.445Z,7.4
2023-03-06T14:12:47.747Z,7.3
2023-03-06T14:14:01.986Z,7.4
2023-03-06T14:15:16.226Z,7.4
2023-03-06T14:16:30.454Z,7.3
2023-03-06T14:17:44.669Z,7.2
2023-03-06T14:18:58.973Z,7.2
2023-03-06T14:20:13.208Z,7.2
2023-03-06T14:21:27.442Z,7.1
2023-03-06T14:22:41.674Z,7.2
2023-03-06T14:23:55.894Z,7.1
2023-03-06T14:25:10.203Z,7.1
2023-03-06T14:26:24.429Z,7.1
2023-03-06T14:27:38.662Z,7.1
2023-03-06T14:28:52.880Z,7.2
2023-03-06T14:30:07.120Z,7.2
2023-03-06T14:31:21.416Z,7.2
2023-03-06T14:32:35.651Z,7.3
2023-03-06T14:33:49.879Z,7.3
2023-03-06T14:35:04.106Z,7.3
2023-03-06T14:36:18.334Z,7.3
2023-03-06T14:37:32.642Z,7.3
2023-03-06T14:38:46.878Z,7.4
2023-03-06T14:40:01.098Z,7.4
2023-03-06T14:41:15.393Z,7.4
2023-03-06T14:42:28.710Z,7.3
2023-03-06T14:43:42.993Z,7.2
2023-03-06T14:44:56.289Z,7.2
2023-03-06T14:46:10.528Z,7.1
2023-03-06T14:47:24.828Z,7.1
2023-03-06T14:48:39.060Z,7.1
2023-03-06T14:49:53.283Z,7.1
2023-03-06T14:51:07.522Z,7.1
2023-03-06T14:52:21.743Z,7.1
2023-03-06T14:53:36.034Z,7.1
2023-03-06T14:54:50.281Z,7
2023-03-06T14:56:04.508Z,6.8
2023-03-06T14:57:18.746Z,6.8
2023-03-06T14:58:32.962Z,6.7
2023-03-06T14:59:47.258Z,6.7
2023-03-06T15:01:01.501Z,6.8
2023-03-06T15:02:15.733Z,6.7
2023-03-06T15:03:29.000Z,6.8
2023-03-06T15:05:58.487Z,6.9
2023-03-06T15:07:12.727Z,6.9
2023-03-06T15:08:26.959Z,6.9
2023-03-06T15:09:41.177Z,6.8
2023-03-06T15:10:55.397Z,6.9
2023-03-06T15:12:09.707Z,6.9
2023-03-06T15:13:23.946Z,6.9
2023-03-06T15:14:38.180Z,6.9
2023-03-06T15:15:52.468Z,6.8
2023-03-06T15:17:06.748Z,6.8
2023-03-06T15:18:21.035Z,6.8
2023-03-06T15:19:35.317Z,6.9
2023-03-06T15:20:48.617Z,6.9
2023-03-06T15:22:02.838Z,6.8
2023-03-06T15:23:17.151Z,6.8
2023-03-06T15:24:31.393Z,6.8
2023-03-06T15:25:45.606Z,6.7
2023-03-06T15:26:59.849Z,6.6
2023-03-06T15:28:14.066Z,6.7
2023-03-06T15:29:28.373Z,6.7
2023-03-06T15:30:42.602Z,6.8
2023-03-06T15:31:56.830Z,6.9
2023-03-06T15:33:11.068Z,6.8
2023-03-06T15:34:25.288Z,6.9
2023-03-06T15:35:39.595Z,7
2023-03-06T15:36:53.835Z,6.9
2023-03-06T15:38:08.045Z,7
2023-03-06T15:40:36.501Z,6.9
2023-03-06T15:41:50.809Z,6.8
2023-03-06T15:43:05.044Z,6.9
2023-03-06T15:44:19.271Z,6.8
2023-03-06T15:45:33.498Z,6.7
2023-03-06T15:46:47.726Z,6.8
2023-03-06T15:48:02.035Z,6.9
2023-03-06T15:49:16.273Z,7
2023-03-06T15:50:30.501Z,7.1
2023-03-06T15:51:44.784Z,7
2023-03-06T15:52:58.081Z,7.1
2023-03-06T15:54:12.322Z,7.2
2023-03-06T15:55:26.553Z,7.1
2023-03-06T15:56:40.764Z,7
2023-03-06T15:57:54.993Z,7
2023-03-06T15:59:09.305Z,6.9
2023-03-06T16:00:23.539Z,7.1
2023-03-06T16:01:37.759Z,7.2
2023-03-06T16:02:51.984Z,7.2
2023-03-06T16:04:06.215Z,7.3
2023-03-06T16:05:20.516Z,7.1
2023-03-06T16:06:34.765Z,7.1
2023-03-06T16:07:48.982Z,7
2023-03-06T16:09:03.216Z,6.9
2023-03-06T16:10:17.448Z,6.8
2023-03-06T16:11:31.736Z,6.9
2023-03-06T16:12:45.982Z,6.8
2023-03-06T16:14:00.214Z,6.7
2023-03-06T16:15:14.439Z,6.8
2023-03-06T16:16:28.649Z,6.8
2023-03-06T16:17:42.953Z,6.6
2023-03-06T16:18:57.206Z,6.6
2023-03-06T16:20:11.423Z,6.5
2023-03-06T16:21:25.662Z,6.5
2023-03-06T16:22:39.883Z,6.5
2023-03-06T16:23:54.239Z,6.5
2023-03-06T16:25:08.529Z,6.4
2023-03-06T16:26:21.822Z,6.4
2023-03-06T16:27:36.050Z,6.4
2023-03-06T16:28:50.357Z,6.4
2023-03-06T16:30:04.586Z,6.4
2023-03-06T16:31:18.807Z,6.4
2023-03-06T16:32:33.046Z,6.4
2023-03-06T16:33:47.261Z,6.2
2023-03-06T16:35:01.571Z,6.2
2023-03-06T16:36:15.814Z,6.2
2023-03-06T16:37:30.030Z,6.1
2023-03-06T16:38:44.269Z,6.1
2023-03-06T16:39:58.486Z,6.1
2023-03-06T16:41:12.787Z,6
2023-03-06T16:43:41.249Z,6
2023-03-06T16:44:55.483Z,6
2023-03-06T16:46:09.716Z,5.9
2023-03-06T16:47:24.012Z,5.9
2023-03-06T16:48:38.249Z,5.9
2023-03-06T16:49:52.486Z,5.9
2023-03-06T16:51:06.706Z,5.9
2023-03-06T16:52:20.933Z,5.8
2023-03-06T16:53:35.238Z,5.8
2023-03-06T16:54:49.481Z,5.8
2023-03-06T16:56:03.692Z,5.8
2023-03-06T16:57:17.990Z,5.8
2023-03-06T16:58:31.318Z,5.8
2023-03-06T16:59:45.607Z,5.8
2023-03-06T17:00:58.893Z,5.8
2023-03-06T17:02:13.126Z,5.7
2023-03-06T17:03:27.423Z,5.7
2023-03-06T17:04:41.660Z,5.7
2023-03-06T17:05:55.889Z,5.7
2023-03-06T17:08:24.332Z,5.7
2023-03-06T17:09:38.634Z,5.7
2023-03-06T17:10:52.887Z,5.6
2023-03-06T17:12:07.100Z,5.6
2023-03-06T17:13:21.339Z,5.5
2023-03-06T17:14:35.571Z,5.5
2023-03-06T17:15:49.854Z,5.5
2023-03-06T17:17:04.093Z,5.5
2023-03-06T17:18:18.331Z,5.5
2023-03-06T17:19:32.548Z,5.5
2023-03-06T17:20:46.792Z,5.5
2023-03-06T17:22:01.091Z,5.4
2023-03-06T17:23:15.324Z,5.4
2023-03-06T17:24:29.552Z,5.4
2023-03-06T17:25:43.776Z,5.3
2023-03-06T17:26:58.005Z,5.3
2023-03-06T17:28:12.296Z,5.3
2023-03-06T17:29:26.544Z,5.2
2023-03-06T17:30:40.761Z,5.2
2023-03-06T17:31:55.048Z,5.2
2023-03-06T17:33:08.386Z,5.2
2023-03-06T17:34:22.680Z,5.2
2023-03-06T17:35:35.960Z,5.2
2023-03-06T17:36:50.191Z,5.2
2023-03-06T17:38:04.483Z,5.1
2023-03-06T17:39:18.735Z,5.1
2023-03-06T17:40:32.969Z,5.1
2023-03-06T17:41:47.182Z,5.1
2023-03-06T17:43:01.420Z,5.1
2023-03-06T17:44:15.720Z,5.1
2023-03-06T17:45:30.018Z,5